createdAt,value
2022-08-21T00:00:42.382Z,4.88
2022-08-21T00:05:50.440Z,4.97
2022-08-21T00:10:51.906Z,5.30
2022-08-21T00:15:53.363Z,5.05
2022-08-21T00:20:55.233Z,4.85
2022-08-21T00:25:56.772Z,5.10
2022-08-21T00:30:58.507Z,4.82
2022-08-21T00:36:00.124Z,4.97
2022-08-21T00:41:29.894Z,4.88
2022-08-21T00:46:28.532Z,5.30
2022-08-21T00:51:38.707Z,4.82
2022-08-21T00:56:40.452Z,5.10
2022-08-21T01:01:44.931Z,5.00
2022-08-21T01:06:46.725Z,5.50
2022-08-21T01:11:48.411Z,4.93
2022-08-21T01:16:53.513Z,5.18
2022-08-21T01:21:55.346Z,5.90
2022-08-21T01:26:56.886Z,5.13
2022-08-21T01:32:00.495Z,5.55
2022-08-21T01:37:02.049Z,6.07
2022-08-21T01:42:04.561Z,5.90
2022-08-21T01:47:08.712Z,5.72
2022-08-21T01:52:10.285Z,5.60
2022-08-21T01:57:13.041Z,5.38
2022-08-21T02:02:14.443Z,5.63
2022-08-21T02:07:16.082Z,5.63
2022-08-21T02:12:17.489Z,6.07
2022-08-21T02:17:18.932Z,5.88
2022-08-21T02:22:20.659Z,6.88
2022-08-21T02:27:27.307Z,5.85
2022-08-21T02:32:28.998Z,5.93
2022-08-21T02:37:30.390Z,6.18
2022-08-21T02:42:31.877Z,6.45
2022-08-21T02:47:33.359Z,5.57
2022-08-21T02:52:35.618Z,5.50
2022-08-21T02:57:37.001Z,6.03
2022-08-21T03:02:38.492Z,5.55
2022-08-21T03:07:40.354Z,5.72
2022-08-21T03:12:42.204Z,5.50
2022-08-21T03:17:44.748Z,5.80
2022-08-21T03:22:48.510Z,5.78
2022-08-21T03:27:58.710Z,6.05
2022-08-21T03:33:01.008Z,6.68
2022-08-21T03:38:02.589Z,7.38
2022-08-21T03:43:04.033Z,6.85
2022-08-21T03:48:07.813Z,7.78
2022-08-21T03:53:16.482Z,7.43
2022-08-21T03:58:21.847Z,7.93
2022-08-21T04:03:24.084Z,7.30
2022-08-21T04:08:25.645Z,8.02
2022-08-21T04:13:28.938Z,8.00
2022-08-21T04:18:30.399Z,8.15
2022-08-21T04:23:32.059Z,8.68
2022-08-21T04:28:33.474Z,8.45
2022-08-21T04:33:35.341Z,8.05
2022-08-21T04:38:37.655Z,8.95
2022-08-21T04:43:40.361Z,8.77
2022-08-21T04:48:41.847Z,9.35
2022-08-21T04:54:03.756Z,9.50
2022-08-21T04:59:11.585Z,9.90
2022-08-21T05:04:17.661Z,10.07
2022-08-21T05:09:20.281Z,11.32
2022-08-21T05:14:21.810Z,9.88
2022-08-21T05:19:24.239Z,10.52
2022-08-21T05:24:25.701Z,10.10
2022-08-21T05:29:27.328Z,10.52
2022-08-21T05:34:28.742Z,11.68
2022-08-21T05:39:30.265Z,11.60
2022-08-21T05:44:51.681Z,11.27
2022-08-21T05:49:53.841Z,11.68
2022-08-21T05:54:55.701Z,11.60
2022-08-21T05:59:57.232Z,12.10
2022-08-21T06:04:58.640Z,11.45
2022-08-21T06:10:00.488Z,11.90
2022-08-21T06:15:01.876Z,10.75
2022-08-21T06:20:05.331Z,10.50
2022-08-21T06:25:07.453Z,10.27
2022-08-21T06:30:09.644Z,10.52
2022-08-21T06:35:11.210Z,10.40
2022-08-21T06:40:13.099Z,9.55
2022-08-21T06:45:14.794Z,8.73
2022-08-21T06:50:16.336Z,7.07
2022-08-21T06:55:24.481Z,6.88
2022-08-21T07:00:28.238Z,6.53
2022-08-21T07:05:31.065Z,6.63
2022-08-21T07:10:32.566Z,5.85
2022-08-21T07:15:34.026Z,5.43
2022-08-21T07:20:35.734Z,4.90
2022-08-21T07:25:37.283Z,5.50
2022-08-21T07:30:38.899Z,5.03
2022-08-21T07:35:40.357Z,3.50
2022-08-21T07:40:41.919Z,3.33
2022-08-21T07:45:44.030Z,2.92
2022-08-21T07:50:45.606Z,2.08
2022-08-21T07:55:47.069Z,1.70
2022-08-21T08:00:48.497Z,1.95
2022-08-21T08:05:50.072Z,2.63
2022-08-21T08:10:52.732Z,2.22
2022-08-21T08:15:54.382Z,2.42
2022-08-21T08:20:55.871Z,2.17
2022-08-21T08:25:57.922Z,2.60
2022-08-21T08:31:00.883Z,1.40
2022-08-21T08:36:06.533Z,1.83
2022-08-21T08:41:14.239Z,1.42
2022-08-21T08:46:19.915Z,1.83
2022-08-21T08:51:33.899Z,1.23
2022-08-21T08:56:36.440Z,1.70
2022-08-21T09:01:39.192Z,2.20
2022-08-21T09:06:50.063Z,1.60
2022-08-21T09:17:32.764Z,1.83
2022-08-21T09:22:49.419Z,1.30
2022-08-21T09:27:51.707Z,1.38
2022-08-21T09:32:53.157Z,1.38
2022-08-21T09:38:08.193Z,1.30
2022-08-21T09:43:12.381Z,1.30
2022-08-21T09:48:26.303Z,1.60
2022-08-21T09:53:35.423Z,1.30
2022-08-21T09:58:42.387Z,1.52
2022-08-21T10:03:44.591Z,1.80
2022-08-21T10:08:46.047Z,1.30
2022-08-21T10:14:08.542Z,1.15
2022-08-21T10:19:42.674Z,1.60
2022-08-21T10:25:07.169Z,1.60
2022-08-21T10:30:22.122Z,1.00
2022-08-21T10:35:32.855Z,1.15
2022-08-21T10:51:38.945Z,1.30
2022-08-21T10:56:42.333Z,1.25
2022-08-21T11:01:57.886Z,1.45
2022-08-21T11:07:20.695Z,1.50
2022-08-21T11:12:36.955Z,1.20
2022-08-21T11:17:45.957Z,1.20
2022-08-21T11:22:58.951Z,1.05
2022-08-21T11:28:14.435Z,1.30
2022-08-21T11:33:43.881Z,1.38
2022-08-21T11:38:56.956Z,1.13
2022-08-21T11:44:16.391Z,1.45
2022-08-21T11:49:23.810Z,1.10
2022-08-21T11:54:31.707Z,1.20
2022-08-21T12:00:21.641Z,0.68
2022-08-21T12:05:32.517Z,1.20
2022-08-21T12:10:37.426Z,1.00
2022-08-21T12:15:39.329Z,1.08
2022-08-21T12:20:50.178Z,1.30
2022-08-21T12:26:14.530Z,1.20
2022-08-21T12:31:26.867Z,1.40
2022-08-21T12:36:45.002Z,0.85
2022-08-21T12:41:49.231Z,1.45
2022-08-21T12:47:26.363Z,0.80
2022-08-21T12:52:39.129Z,1.10
2022-08-21T12:57:42.883Z,0.90
2022-08-21T13:02:50.158Z,1.40
2022-08-21T13:07:52.301Z,1.20
2022-08-21T13:13:12.971Z,1.10
2022-08-21T13:18:33.905Z,1.30
2022-08-21T13:23:35.728Z,1.75
2022-08-21T13:28:38.690Z,1.73
2022-08-21T13:33:42.024Z,1.00
2022-08-21T13:38:45.814Z,1.10
2022-08-21T13:43:56.882Z,1.63
2022-08-21T13:49:01.188Z,1.00
2022-08-21T13:54:14.480Z,1.10
2022-08-21T13:59:36.730Z,1.02
2022-08-21T14:04:53.422Z,1.02
2022-08-21T14:09:55.902Z,1.10
2022-08-21T14:14:58.849Z,1.33
2022-08-21T14:20:00.709Z,1.08
2022-08-21T14:25:06.771Z,1.20
2022-08-21T14:30:18.964Z,1.20
2022-08-21T14:35:23.606Z,0.90
2022-08-21T14:40:26.360Z,0.90
2022-08-21T14:45:30.267Z,1.05
2022-08-21T14:50:31.665Z,1.23
2022-08-21T14:55:56.678Z,1.10
2022-08-21T15:00:59.117Z,1.50
2022-08-21T15:06:00.769Z,1.20
2022-08-21T15:11:12.709Z,1.10
2022-08-21T15:16:16.101Z,1.00
2022-08-21T15:21:17.546Z,1.30
2022-08-21T15:26:20.238Z,1.00
2022-08-21T15:31:21.723Z,1.20
2022-08-21T15:36:23.353Z,1.30
2022-08-21T15:41:24.783Z,1.00
2022-08-21T15:46:26.252Z,1.20
2022-08-21T15:51:27.717Z,0.93
2022-08-21T15:56:36.408Z,0.90
2022-08-21T16:01:44.628Z,1.00
2022-08-21T16:06:54.427Z,0.90
2022-08-21T16:16:59.162Z,0.90
2022-08-21T16:22:00.583Z,1.10
2022-08-21T16:27:03.130Z,1.10
2022-08-21T16:32:10.279Z,0.82
2022-08-21T16:37:11.744Z,1.17
2022-08-21T16:42:18.042Z,1.27
2022-08-21T16:47:26.507Z,1.50
2022-08-21T16:52:28.926Z,1.60
2022-08-21T16:57:30.887Z,1.10
2022-08-21T17:02:37.501Z,1.90
2022-08-21T17:07:39.120Z,1.90
2022-08-21T17:12:43.142Z,2.10
2022-08-21T17:17:45.534Z,1.95
2022-08-21T17:22:47.079Z,2.47
2022-08-21T17:27:49.483Z,2.10
2022-08-21T17:32:54.217Z,2.35
2022-08-21T17:37:55.796Z,2.53
2022-08-21T17:42:58.921Z,2.47
2022-08-21T17:48:00.496Z,3.05
2022-08-21T17:53:02.092Z,2.55
2022-08-21T17:58:04.262Z,1.90
2022-08-21T18:03:14.818Z,1.92
2022-08-21T18:08:17.309Z,2.25
2022-08-21T18:13:29.385Z,2.28
2022-08-21T18:18:36.684Z,2.10
2022-08-21T18:23:43.869Z,2.70
2022-08-21T18:28:46.160Z,1.75
2022-08-21T18:33:58.114Z,1.80
2022-08-21T18:39:19.352Z,1.80
2022-08-21T18:44:24.467Z,2.00
2022-08-21T18:49:26.957Z,1.95
2022-08-21T18:54:28.496Z,1.92
2022-08-21T18:59:30.881Z,1.60
2022-08-21T19:04:43.914Z,2.30
2022-08-21T19:10:01.907Z,2.03
2022-08-21T19:15:11.319Z,1.90
2022-08-21T19:20:25.911Z,1.80
2022-08-21T19:25:32.994Z,2.10
2022-08-21T19:30:41.836Z,1.90
2022-08-21T19:35:47.300Z,1.88
2022-08-21T19:40:54.495Z,2.00
2022-08-21T19:45:57.077Z,1.80
2022-08-21T19:50:59.000Z,1.88
2022-08-21T19:56:00.519Z,1.92
2022-08-21T20:01:03.990Z,2.00
2022-08-21T20:06:13.310Z,1.80
2022-08-21T20:11:22.273Z,2.00
2022-08-21T20:16:24.148Z,2.35
2022-08-21T20:21:27.633Z,2.60
2022-08-21T20:26:29.493Z,1.95
2022-08-21T20:31:31.819Z,2.05
2022-08-21T20:36:35.637Z,2.15
2022-08-21T20:41:37.922Z,2.20
2022-08-21T20:46:40.279Z,1.90
2022-08-21T20:51:49.402Z,1.95
2022-08-21T20:57:04.598Z,2.00
2022-08-21T21:02:17.615Z,2.15
2022-08-21T21:07:27.908Z,1.90
2022-08-21T21:12:40.510Z,2.07
2022-08-21T21:18:15.383Z,1.88
2022-08-21T21:23:42.287Z,2.13
2022-08-21T21:29:01.981Z,2.35
2022-08-21T21:34:05.529Z,2.03
2022-08-21T21:39:14.201Z,2.20
2022-08-21T21:44:27.363Z,2.10
2022-08-21T21:49:37.549Z,2.25
2022-08-21T21:54:54.240Z,2.20
2022-08-21T22:00:09.943Z,1.88
2022-08-21T22:05:23.223Z,2.10
2022-08-21T22:10:33.400Z,2.28
2022-08-21T22:15:44.755Z,2.33
2022-08-21T22:21:05.232Z,2.10
2022-08-21T22:26:16.504Z,2.50
2022-08-21T22:31:23.058Z,2.28
2022-08-21T22:36:24.547Z,2.08
2022-08-21T22:41:31.441Z,2.22
2022-08-21T22:46:52.447Z,2.50
2022-08-21T22:52:28.730Z,2.28
2022-08-21T22:57:33.789Z,2.50
2022-08-21T23:03:16.526Z,2.60
2022-08-21T23:08:33.177Z,2.63
2022-08-21T23:13:48.543Z,3.00
2022-08-21T23:19:30.193Z,2.40
2022-08-21T23:24:53.777Z,2.65
2022-08-21T23:30:21.418Z,2.75
2022-08-21T23:36:33.436Z,2.70
2022-08-21T23:41:53.133Z,2.60
2022-08-21T23:46:57.715Z,2.90
2022-08-21T23:52:14.967Z,3.05
2022-08-21T23:57:44.077Z,2.53
